createdAt,value
2022-10-17T00:00:35.561Z,99169.13
2022-10-17T00:03:58.373Z,99170.56
2022-10-17T00:07:01.202Z,99172.64
2022-10-17T00:10:05.824Z,99172.41
2022-10-17T00:13:09.656Z,99171.70
2022-10-17T00:16:12.506Z,99179.78
2022-10-17T00:19:15.321Z,99180.58
2022-10-17T00:22:18.205Z,99188.35
2022-10-17T00:25:21.038Z,99192.41
2022-10-17T00:28:23.888Z,99193.70
2022-10-17T00:31:26.852Z,99196.81
2022-10-17T00:34:31.191Z,99196.74
2022-10-17T00:37:34.591Z,99197.47
2022-10-17T00:40:37.491Z,99192.27
2022-10-17T00:44:02.141Z,99191.49
2022-10-17T00:47:08.511Z,99194.67
2022-10-17T00:50:13.058Z,99200.95
2022-10-17T00:53:16.849Z,99204.45
2022-10-17T00:56:21.256Z,99199.88
2022-10-17T00:59:25.032Z,99196.57
2022-10-17T01:02:28.127Z,99200.61
2022-10-17T01:05:31.251Z,99203.62
2022-10-17T01:08:34.544Z,99198.96
2022-10-17T01:11:56.973Z,99197.23
2022-10-17T01:15:08.855Z,99195.80
2022-10-17T01:18:43.200Z,99198.50
2022-10-17T01:22:10.158Z,99203.01
2022-10-17T01:25:42.689Z,99205.77
2022-10-17T01:29:13.255Z,99205.05
2022-10-17T01:32:28.130Z,99209.33
2022-10-17T01:35:48.568Z,99211.14
2022-10-17T01:39:06.134Z,99218.41
2022-10-17T01:42:27.408Z,99217.93
2022-10-17T01:45:41.228Z,99211.36
2022-10-17T01:48:46.250Z,99210.88
2022-10-17T01:51:55.726Z,99209.77
2022-10-17T01:55:06.975Z,99203.13
2022-10-17T01:58:30.089Z,99205.02
2022-10-17T02:01:37.506Z,99197.50
2022-10-17T02:04:41.397Z,99195.69
2022-10-17T02:07:44.302Z,99190.77
2022-10-17T02:10:59.223Z,99192.59
2022-10-17T02:14:25.104Z,99199.95
2022-10-17T02:17:36.362Z,99194.25
2022-10-17T02:20:49.642Z,99189.19
2022-10-17T02:24:20.409Z,99192.20
2022-10-17T02:27:35.358Z,99195.13
2022-10-17T02:30:58.406Z,99201.70
2022-10-17T02:34:05.074Z,99203.94
2022-10-17T02:37:11.502Z,99202.42
2022-10-17T02:40:17.587Z,99205.36
2022-10-17T02:43:21.980Z,99203.70
2022-10-17T02:46:28.014Z,99206.87
2022-10-17T02:49:39.210Z,99207.90
2022-10-17T02:52:58.120Z,99212.56
2022-10-17T02:56:14.327Z,99219.45
2022-10-17T02:59:20.771Z,99225.24
2022-10-17T03:02:23.685Z,99222.79
2022-10-17T03:05:29.144Z,99219.00
2022-10-17T03:08:32.098Z,99220.27
2022-10-17T03:11:36.308Z,99218.61
2022-10-17T03:14:39.317Z,99223.05
2022-10-17T03:17:42.932Z,99221.48
2022-10-17T03:20:46.137Z,99230.17
2022-10-17T03:23:49.131Z,99228.05
2022-10-17T03:26:52.459Z,99231.59
2022-10-17T03:29:55.694Z,99232.86
2022-10-17T03:32:59.514Z,99224.15
2022-10-17T03:36:11.643Z,99232.39
2022-10-17T03:39:14.723Z,99238.01
2022-10-17T03:42:17.714Z,99237.54
2022-10-17T03:45:20.850Z,99246.73
2022-10-17T03:48:41.433Z,99248.61
2022-10-17T03:51:44.549Z,99248.07
2022-10-17T03:54:51.014Z,99255.18
2022-10-17T03:57:54.196Z,99255.58
2022-10-17T04:00:57.238Z,99258.27
2022-10-17T04:04:00.234Z,99260.80
2022-10-17T04:07:06.058Z,99262.23
2022-10-17T04:10:10.993Z,99259.95
2022-10-17T04:13:14.227Z,99263.02
2022-10-17T04:16:17.362Z,99262.95
2022-10-17T04:19:34.238Z,99262.07
2022-10-17T04:22:37.484Z,99257.96
2022-10-17T04:25:40.603Z,99258.20
2022-10-17T04:28:43.533Z,99263.89
2022-10-17T04:31:46.642Z,99268.87
2022-10-17T04:34:59.602Z,99271.32
2022-10-17T04:38:03.602Z,99270.45
2022-10-17T04:41:10.277Z,99265.23
2022-10-17T04:44:13.217Z,99266.90
2022-10-17T04:47:19.074Z,99264.92
2022-10-17T04:50:22.255Z,99269.27
2022-10-17T04:53:42.587Z,99268.15
2022-10-17T04:56:47.206Z,99268.88
2022-10-17T04:59:50.133Z,99272.59
2022-10-17T05:03:19.048Z,99269.35
2022-10-17T05:06:25.070Z,99267.99
2022-10-17T05:09:43.101Z,99278.04
2022-10-17T05:12:48.157Z,99289.98
2022-10-17T05:15:51.957Z,99289.11
2022-10-17T05:18:56.783Z,99287.83
2022-10-17T05:22:02.925Z,99286.49
2022-10-17T05:25:06.473Z,99284.91
2022-10-17T05:28:09.777Z,99281.52
2022-10-17T05:31:14.134Z,99280.41
2022-10-17T05:34:18.018Z,99283.01
2022-10-17T05:37:20.970Z,99286.17
2022-10-17T05:40:26.276Z,99283.47
2022-10-17T05:43:30.127Z,99289.80
2022-10-17T05:46:33.023Z,99293.99
2022-10-17T05:49:52.438Z,99301.73
2022-10-17T05:53:03.439Z,99304.19
2022-10-17T05:56:08.994Z,99299.75
2022-10-17T05:59:12.833Z,99306.00
2022-10-17T06:02:24.863Z,99308.37
2022-10-17T06:05:27.873Z,99311.05
2022-10-17T06:08:32.324Z,99313.91
2022-10-17T06:11:36.368Z,99320.15
2022-10-17T06:14:39.253Z,99325.13
2022-10-17T06:17:42.734Z,99325.38
2022-10-17T06:20:46.219Z,99328.23
2022-10-17T06:23:51.559Z,99333.84
2022-10-17T06:27:11.008Z,99336.92
2022-10-17T06:30:15.345Z,99342.64
2022-10-17T06:33:18.313Z,99343.02
2022-10-17T06:36:21.384Z,99346.35
2022-10-17T06:39:26.941Z,99348.16
2022-10-17T06:42:56.411Z,99349.59
2022-10-17T06:46:01.783Z,99356.30
2022-10-17T06:49:13.029Z,99358.93
2022-10-17T06:52:34.887Z,99363.67
2022-10-17T06:56:01.611Z,99362.98
2022-10-17T06:59:33.471Z,99369.54
2022-10-17T07:02:46.337Z,99373.26
2022-10-17T07:05:53.495Z,99380.23
2022-10-17T07:08:56.385Z,99382.92
2022-10-17T07:12:00.636Z,99392.50
2022-10-17T07:15:04.987Z,99393.13
2022-10-17T07:18:08.282Z,99394.34
2022-10-17T07:21:11.327Z,99395.75
2022-10-17T07:24:16.072Z,99393.39
2022-10-17T07:27:23.326Z,99398.25
2022-10-17T07:30:27.263Z,99401.48
2022-10-17T07:33:38.613Z,99405.52
2022-10-17T07:36:41.709Z,99408.38
2022-10-17T07:39:44.976Z,99407.75
2022-10-17T07:42:48.327Z,99409.56
2022-10-17T07:45:52.600Z,99407.34
2022-10-17T07:48:55.415Z,99401.88
2022-10-17T07:51:58.491Z,99399.82
2022-10-17T07:55:01.548Z,99400.85
2022-10-17T07:58:04.429Z,99402.42
2022-10-17T08:01:14.751Z,99400.27
2022-10-17T08:04:18.553Z,99402.56
2022-10-17T08:07:25.312Z,99399.48
2022-10-17T08:10:31.339Z,99402.79
2022-10-17T08:13:34.579Z,99404.76
2022-10-17T08:16:37.506Z,99405.07
2022-10-17T08:19:40.812Z,99411.31
2022-10-17T08:22:43.785Z,99414.15
2022-10-17T08:25:47.047Z,99414.55
2022-10-17T08:28:49.906Z,99416.11
2022-10-17T08:31:56.289Z,99410.86
2022-10-17T08:35:04.460Z,99409.58
2022-10-17T08:38:09.950Z,99411.61
2022-10-17T08:41:36.568Z,99406.22
2022-10-17T08:44:57.425Z,99407.47
2022-10-17T08:48:02.613Z,99408.71
2022-10-17T08:59:59.696Z,99409.77
2022-10-17T09:03:16.742Z,99408.98
2022-10-17T09:06:29.978Z,99410.66
2022-10-17T09:09:50.144Z,99411.23
2022-10-17T09:13:10.540Z,99412.70
2022-10-17T09:16:36.882Z,99414.34
2022-10-17T09:19:43.575Z,99412.80
2022-10-17T09:23:06.015Z,99413.02
2022-10-17T09:26:11.152Z,99411.91
2022-10-17T09:29:21.384Z,99408.04
2022-10-17T09:32:24.657Z,99407.34
2022-10-17T09:35:29.616Z,99403.76
2022-10-17T09:38:39.766Z,99407.83
2022-10-17T09:41:51.437Z,99406.09
2022-10-17T09:45:16.099Z,99409.25
2022-10-17T09:48:34.476Z,99408.63
2022-10-17T09:51:38.090Z,99414.16
2022-10-17T09:54:52.661Z,99414.95
2022-10-17T09:58:10.111Z,99409.44
2022-10-17T10:01:23.996Z,99411.89
2022-10-17T10:04:30.244Z,99409.87
2022-10-17T10:07:51.605Z,99409.23
2022-10-17T10:11:00.095Z,99409.91
2022-10-17T10:14:34.035Z,99409.02
2022-10-17T10:18:26.178Z,99413.25
2022-10-17T10:21:28.183Z,99416.60
2022-10-17T10:25:17.087Z,99415.39
2022-10-17T10:28:25.678Z,99411.41
2022-10-17T10:31:39.197Z,99412.95
2022-10-17T10:35:18.636Z,99413.44
2022-10-17T10:38:22.452Z,99413.52
2022-10-17T10:41:48.167Z,99413.57
2022-10-17T10:44:56.036Z,99410.96
2022-10-17T10:48:19.168Z,99409.15
2022-10-17T10:51:27.089Z,99406.42
2022-10-17T10:54:36.049Z,99397.60
2022-10-17T10:57:44.348Z,99397.62
2022-10-17T11:00:47.291Z,99397.96
2022-10-17T11:04:23.043Z,99394.65
2022-10-17T11:07:46.408Z,99398.33
2022-10-17T11:11:13.171Z,99395.50
2022-10-17T11:14:31.266Z,99392.73
2022-10-17T11:17:56.325Z,99397.06
2022-10-17T11:21:16.119Z,99392.78
2022-10-17T11:24:29.341Z,99395.52
2022-10-17T11:27:33.375Z,99393.23
2022-10-17T11:30:45.999Z,99394.91
2022-10-17T11:33:53.487Z,99394.58
2022-10-17T11:37:09.097Z,99390.44
2022-10-17T11:40:44.517Z,99391.70
2022-10-17T11:44:02.747Z,99390.65
2022-10-17T11:47:25.659Z,99387.21
2022-10-17T11:54:22.733Z,99382.71
2022-10-17T11:57:44.794Z,99384.77
2022-10-17T12:00:56.122Z,99380.27
2022-10-17T12:04:06.786Z,99377.54
2022-10-17T12:07:21.694Z,99379.10
2022-10-17T12:10:47.928Z,99381.46
2022-10-17T12:13:53.885Z,99377.36
2022-10-17T12:16:55.476Z,99372.81
2022-10-17T12:20:25.024Z,99373.34
2022-10-17T12:23:28.361Z,99373.95
2022-10-17T12:26:30.259Z,99370.38
2022-10-17T12:29:32.038Z,99371.16
2022-10-17T12:32:46.848Z,99369.29
2022-10-17T12:36:28.082Z,99363.23
2022-10-17T12:39:29.549Z,99366.08
2022-10-17T12:42:32.557Z,99367.13
2022-10-17T12:46:02.911Z,99368.24
2022-10-17T12:49:20.343Z,99364.98
2022-10-17T12:52:34.812Z,99367.13
2022-10-17T12:55:36.710Z,99362.52
2022-10-17T12:58:48.828Z,99364.03
2022-10-17T13:02:01.179Z,99359.67
2022-10-17T13:05:18.797Z,99362.30
2022-10-17T13:08:34.041Z,99360.70
2022-10-17T13:12:21.327Z,99358.15
2022-10-17T13:15:23.305Z,99361.75
2022-10-17T13:18:31.982Z,99362.52
2022-10-17T13:26:45.495Z,99355.83
2022-10-17T13:29:48.008Z,99357.59
2022-10-17T13:32:49.829Z,99354.96
2022-10-17T13:36:06.939Z,99356.39
2022-10-17T13:39:14.993Z,99352.18
2022-10-17T13:42:30.548Z,99346.99
2022-10-17T13:45:37.674Z,99351.05
2022-10-17T13:54:55.396Z,99351.52
2022-10-17T14:04:19.472Z,99339.73
2022-10-17T14:18:20.235Z,99343.36
2022-10-17T14:21:40.900Z,99340.02
2022-10-17T14:24:47.070Z,99343.23
2022-10-17T14:28:02.293Z,99342.94
2022-10-17T14:31:20.274Z,99347.56
2022-10-17T14:34:29.923Z,99346.97
2022-10-17T14:37:46.421Z,99344.73
2022-10-17T14:40:51.750Z,99348.08
2022-10-17T14:44:00.926Z,99347.40
2022-10-17T14:47:30.906Z,99346.30
2022-10-17T14:50:31.976Z,99345.30
2022-10-17T14:53:34.965Z,99340.32
2022-10-17T14:56:41.801Z,99345.02
2022-10-17T15:00:00.167Z,99344.83
2022-10-17T15:03:03.068Z,99341.67
2022-10-17T15:06:24.636Z,99337.41
2022-10-17T15:09:29.013Z,99334.91
2022-10-17T15:12:32.883Z,99334.48
2022-10-17T15:15:37.390Z,99332.13
2022-10-17T15:18:40.234Z,99330.97
2022-10-17T15:21:46.949Z,99327.91
2022-10-17T15:24:50.516Z,99329.64
2022-10-17T15:27:54.387Z,99328.90
2022-10-17T15:30:57.249Z,99327.44
2022-10-17T15:34:00.146Z,99323.90
2022-10-17T15:37:04.799Z,99322.38
2022-10-17T15:40:14.686Z,99318.77
2022-10-17T15:43:19.911Z,99315.05
2022-10-17T15:46:28.778Z,99317.60
2022-10-17T15:49:31.606Z,99318.56
2022-10-17T15:52:35.409Z,99320.39
2022-10-17T15:55:38.299Z,99317.14
2022-10-17T15:58:41.141Z,99321.89
2022-10-17T16:01:44.660Z,99325.30
2022-10-17T16:04:49.389Z,99332.68
2022-10-17T16:07:53.692Z,99336.08
2022-10-17T16:10:56.649Z,99336.54
2022-10-17T16:14:02.385Z,99336.30
2022-10-17T16:17:05.241Z,99333.76
2022-10-17T16:20:08.405Z,99333.73
2022-10-17T16:23:13.408Z,99330.52
2022-10-17T16:26:16.370Z,99329.30
2022-10-17T16:29:19.162Z,99331.01
2022-10-17T16:32:22.044Z,99333.20
2022-10-17T16:35:31.867Z,99338.95
2022-10-17T16:38:38.053Z,99339.23
2022-10-17T16:41:41.292Z,99342.20
2022-10-17T16:44:44.638Z,99339.88
2022-10-17T16:47:50.776Z,99341.10
2022-10-17T16:50:54.082Z,99343.52
2022-10-17T16:54:00.223Z,99343.70
2022-10-17T16:57:05.814Z,99338.08
2022-10-17T17:00:12.159Z,99330.40
2022-10-17T17:03:15.908Z,99329.92
2022-10-17T17:06:29.497Z,99332.00
2022-10-17T17:09:32.666Z,99330.98
2022-10-17T17:12:40.203Z,99334.30
2022-10-17T17:18:51.472Z,99339.38
2022-10-17T17:21:54.488Z,99338.27
2022-10-17T17:24:57.478Z,99329.23
2022-10-17T17:28:03.454Z,99331.28
2022-10-17T17:31:09.191Z,99335.66
2022-10-17T17:34:14.345Z,99338.91
2022-10-17T17:37:20.211Z,99341.05
2022-10-17T17:40:23.318Z,99344.64
2022-10-17T17:43:26.283Z,99344.09
2022-10-17T17:46:29.255Z,99347.20
2022-10-17T17:49:32.400Z,99345.69
2022-10-17T17:52:35.581Z,99339.84
2022-10-17T17:55:41.010Z,99340.73
2022-10-17T17:59:01.559Z,99347.45
2022-10-17T18:02:07.050Z,99348.81
2022-10-17T18:05:10.308Z,99343.05
2022-10-17T18:08:13.271Z,99342.68
2022-10-17T18:11:18.408Z,99340.48
2022-10-17T18:14:24.261Z,99343.27
2022-10-17T18:17:27.738Z,99348.06
2022-10-17T18:20:30.515Z,99352.98
2022-10-17T18:23:37.584Z,99357.14
2022-10-17T18:26:40.405Z,99355.73
2022-10-17T18:29:46.243Z,99359.63
2022-10-17T18:32:49.095Z,99354.41
2022-10-17T18:35:51.915Z,99354.73
2022-10-17T18:38:55.567Z,99355.86
2022-10-17T18:41:58.456Z,99350.73
2022-10-17T18:45:05.914Z,99345.12
2022-10-17T18:48:10.327Z,99346.72
2022-10-17T18:51:15.433Z,99347.69
2022-10-17T18:54:21.445Z,99348.18
2022-10-17T18:57:26.173Z,99350.90
2022-10-17T19:00:31.838Z,99350.60
2022-10-17T19:03:34.903Z,99352.84
2022-10-17T19:06:38.897Z,99352.38
2022-10-17T19:09:43.601Z,99346.04
2022-10-17T19:12:47.561Z,99344.70
2022-10-17T19:15:53.753Z,99338.23
2022-10-17T19:18:59.219Z,99336.79
2022-10-17T19:22:03.574Z,99334.81
2022-10-17T19:25:07.498Z,99334.17
2022-10-17T19:28:10.553Z,99328.87
2022-10-17T19:31:16.977Z,99325.14
2022-10-17T19:34:20.881Z,99326.63
2022-10-17T19:37:24.036Z,99326.31
2022-10-17T19:40:27.594Z,99330.73
2022-10-17T19:43:30.991Z,99329.15
2022-10-17T19:46:37.784Z,99329.52
2022-10-17T19:49:47.692Z,99330.48
2022-10-17T19:52:54.686Z,99332.27
2022-10-17T19:55:58.374Z,99330.21
2022-10-17T19:59:02.464Z,99331.31
2022-10-17T20:02:06.198Z,99329.98
2022-10-17T20:05:18.389Z,99330.92
2022-10-17T20:08:21.954Z,99333.14
2022-10-17T20:11:27.320Z,99337.59
2022-10-17T20:14:35.226Z,99336.11
2022-10-17T20:17:42.659Z,99335.47
2022-10-17T20:20:48.053Z,99330.97
2022-10-17T20:23:51.877Z,99327.50
2022-10-17T20:26:54.928Z,99328.63
2022-10-17T20:30:01.788Z,99329.50
2022-10-17T20:33:07.923Z,99328.42
2022-10-17T20:36:13.165Z,99325.98
2022-10-17T20:39:19.965Z,99329.23
2022-10-17T20:42:22.829Z,99335.73
2022-10-17T20:45:37.703Z,99330.36
2022-10-17T20:48:55.306Z,99330.05
2022-10-17T20:52:01.540Z,99328.96
2022-10-17T20:55:05.018Z,99331.41
2022-10-17T20:58:14.501Z,99331.98
2022-10-17T21:01:18.129Z,99331.83
2022-10-17T21:04:44.610Z,99328.89
2022-10-17T21:07:49.859Z,99325.41
2022-10-17T21:11:10.200Z,99326.20
2022-10-17T21:14:16.842Z,99319.70
2022-10-17T21:17:21.851Z,99322.71
2022-10-17T21:20:27.219Z,99325.16
2022-10-17T21:23:30.426Z,99319.14
2022-10-17T21:26:37.310Z,99318.88
2022-10-17T21:29:41.728Z,99318.41
2022-10-17T21:32:51.608Z,99319.52
2022-10-17T21:35:55.341Z,99316.66
2022-10-17T21:39:00.188Z,99315.63
2022-10-17T21:42:06.122Z,99316.41
2022-10-17T21:45:15.369Z,99315.08
2022-10-17T21:48:23.040Z,99310.33
2022-10-17T21:51:26.948Z,99311.84
2022-10-17T21:54:29.849Z,99313.26
2022-10-17T21:57:32.759Z,99309.69
2022-10-17T22:00:35.539Z,99311.42
2022-10-17T22:03:44.088Z,99311.59
2022-10-17T22:06:51.363Z,99309.38
2022-10-17T22:09:54.286Z,99306.35
2022-10-17T22:12:57.391Z,99305.65
2022-10-17T22:16:01.736Z,99302.65
2022-10-17T22:19:06.772Z,99303.60
2022-10-17T22:22:09.839Z,99301.55
2022-10-17T22:25:12.754Z,99301.08
2022-10-17T22:28:15.755Z,99300.52
2022-10-17T22:31:19.509Z,99303.38
2022-10-17T22:34:22.388Z,99299.34
2022-10-17T22:37:25.268Z,99300.84
2022-10-17T22:40:28.165Z,99297.60
2022-10-17T22:43:31.532Z,99297.68
2022-10-17T22:46:37.051Z,99293.88
2022-10-17T22:49:39.948Z,99292.85
2022-10-17T22:52:42.871Z,99286.52
2022-10-17T22:55:56.254Z,99285.89
2022-10-17T22:58:59.192Z,99285.58
2022-10-17T23:02:02.250Z,99283.83
2022-10-17T23:05:07.455Z,99287.63
2022-10-17T23:08:11.413Z,99287.79
2022-10-17T23:11:14.360Z,99285.34
2022-10-17T23:14:17.361Z,99285.27
2022-10-17T23:17:20.255Z,99286.85
2022-10-17T23:20:23.166Z,99283.84
2022-10-17T23:23:26.249Z,99279.32
2022-10-17T23:26:29.124Z,99282.81
2022-10-17T23:29:33.376Z,99280.92
2022-10-17T23:32:36.244Z,99279.35
2022-10-17T23:35:39.166Z,99278.17
2022-10-17T23:38:43.442Z,99277.79
2022-10-17T23:41:46.521Z,99276.61
2022-10-17T23:44:49.477Z,99279.16
2022-10-17T23:47:52.341Z,99277.67
2022-10-17T23:50:56.105Z,99282.45
2022-10-17T23:53:59.260Z,99284.13
2022-10-17T23:57:02.211Z,99284.13
